sensor_id;sensor_type;location;lat;lon;timestamp;pressure;altitude;pressure_sealevel;temperature;humidity
67430;BME280;54298;52.076;5.264;2023-03-23T00:01:13;100083.0;;;12.71;83.01
67430;BME280;54298;52.076;5.264;2023-03-23T00:02:49;100070.0;;;12.84;82.42
67430;BME280;54298;52.076;5.264;2023-03-23T00:06:02;100062.0;;;12.65;82.66
67430;BME280;54298;52.076;5.264;2023-03-23T00:07:38;100059.0;;;12.67;82.86
67430;BME280;54298;52.076;5.264;2023-03-23T00:09:15;100060.0;;;12.53;83.14
67430;BME280;54298;52.076;5.264;2023-03-23T00:12:29;100068.0;;;12.66;82.56
67430;BME280;54298;52.076;5.264;2023-03-23T00:14:08;100073.0;;;12.6;82.62
67430;BME280;54298;52.076;5.264;2023-03-23T00:15:46;100069.0;;;12.71;82.26
67430;BME280;54298;52.076;5.264;2023-03-23T00:17:22;100068.0;;;12.78;81.89
67430;BME280;54298;52.076;5.264;2023-03-23T00:20:38;100072.0;;;12.71;81.97
67430;BME280;54298;52.076;5.264;2023-03-23T00:22:16;100073.0;;;12.66;81.7
67430;BME280;54298;52.076;5.264;2023-03-23T00:23:53;100071.0;;;12.68;81.87
67430;BME280;54298;52.076;5.264;2023-03-23T00:27:05;100056.0;;;12.86;81.19
67430;BME280;54298;52.076;5.264;2023-03-23T00:28:41;100067.0;;;12.98;80.5
67430;BME280;54298;52.076;5.264;2023-03-23T00:30:18;100057.0;;;12.97;80.37
67430;BME280;54298;52.076;5.264;2023-03-23T00:31:53;100060.0;;;12.82;80.53
67430;BME280;54298;52.076;5.264;2023-03-23T00:35:09;100052.0;;;12.79;80.42
67430;BME280;54298;52.076;5.264;2023-03-23T00:36:46;100063.0;;;12.9;80.0
67430;BME280;54298;52.076;5.264;2023-03-23T00:38:24;100052.0;;;12.94;79.55
67430;BME280;54298;52.076;5.264;2023-03-23T00:41:36;100045.0;;;12.86;79.59
67430;BME280;54298;52.076;5.264;2023-03-23T00:43:13;100047.0;;;12.89;79.72
67430;BME280;54298;52.076;5.264;2023-03-23T00:44:49;100041.0;;;13.02;79.02
67430;BME280;54298;52.076;5.264;2023-03-23T00:48:01;100032.0;;;12.83;79.33
67430;BME280;54298;52.076;5.264;2023-03-23T00:49:38;100032.0;;;12.85;79.31
67430;BME280;54298;52.076;5.264;2023-03-23T00:51:14;100041.0;;;12.99;78.91
67430;BME280;54298;52.076;5.264;2023-03-23T00:52:50;100030.0;;;12.88;79.38
67430;BME280;54298;52.076;5.264;2023-03-23T00:56:04;100018.0;;;12.98;78.69
67430;BME280;54298;52.076;5.264;2023-03-23T00:57:41;100020.0;;;13.09;78.27
67430;BME280;54298;52.076;5.264;2023-03-23T00:59:17;100019.0;;;13.19;77.83
67430;BME280;54298;52.076;5.264;2023-03-23T01:02:30;100020.0;;;13.01;78.17
67430;BME280;54298;52.076;5.264;2023-03-23T01:04:07;100019.0;;;13.12;77.69
67430;BME280;54298;52.076;5.264;2023-03-23T01:05:45;100016.0;;;13.14;77.78
67430;BME280;54298;52.076;5.264;2023-03-23T01:08:58;100015.0;;;13.21;77.44
67430;BME280;54298;52.076;5.264;2023-03-23T01:10:35;100013.0;;;13.33;76.86
67430;BME280;54298;52.076;5.264;2023-03-23T01:12:11;100011.0;;;13.16;77.3
67430;BME280;54298;52.076;5.264;2023-03-23T01:13:47;100005.0;;;13.16;77.38
67430;BME280;54298;52.076;5.264;2023-03-23T01:16:59;100017.0;;;13.03;77.78
67430;BME280;54298;52.076;5.264;2023-03-23T01:18:36;100017.0;;;13.16;77.3
67430;BME280;54298;52.076;5.264;2023-03-23T01:20:13;100025.0;;;13.17;77.2
67430;BME280;54298;52.076;5.264;2023-03-23T01:23:27;100014.0;;;13.08;77.31
67430;BME280;54298;52.076;5.264;2023-03-23T01:25:03;100003.0;;;13.09;77.22
67430;BME280;54298;52.076;5.264;2023-03-23T01:26:40;99989.0;;;13.1;77.45
67430;BME280;54298;52.076;5.264;2023-03-23T01:29:52;100005.0;;;12.99;77.73
67430;BME280;54298;52.076;5.264;2023-03-23T01:31:28;100005.0;;;13.12;77.33
67430;BME280;54298;52.076;5.264;2023-03-23T01:33:04;99994.0;;;13.1;77.44
67430;BME280;54298;52.076;5.264;2023-03-23T01:34:40;99987.0;;;13.18;77.27
67430;BME280;54298;52.076;5.264;2023-03-23T01:37:57;99984.0;;;13.1;77.16
67430;BME280;54298;52.076;5.264;2023-03-23T01:39:33;99992.0;;;13.15;76.97
67430;BME280;54298;52.076;5.264;2023-03-23T01:41:14;99980.0;;;13.14;77.27
67430;BME280;54298;52.076;5.264;2023-03-23T01:45:24;99980.0;;;13.08;77.28
67430;BME280;54298;52.076;5.264;2023-03-23T01:47:01;99976.0;;;13.03;77.44
67430;BME280;54298;52.076;5.264;2023-03-23T01:48:39;99981.0;;;13.06;77.48
67430;BME280;54298;52.076;5.264;2023-03-23T01:50:16;99980.0;;;12.98;77.8
67430;BME280;54298;52.076;5.264;2023-03-23T01:51:55;99985.0;;;12.95;77.78
67430;BME280;54298;52.076;5.264;2023-03-23T01:53:38;99980.0;;;13.0;77.8
67430;BME280;54298;52.076;5.264;2023-03-23T01:56:55;99974.0;;;13.21;77.23
67430;BME280;54298;52.076;5.264;2023-03-23T01:58:36;99976.0;;;13.12;77.42
67430;BME280;54298;52.076;5.264;2023-03-23T02:00:14;99981.0;;;13.11;77.38
67430;BME280;54298;52.076;5.264;2023-03-23T02:01:51;99976.0;;;13.21;77.02
67430;BME280;54298;52.076;5.264;2023-03-23T02:05:12;99976.0;;;13.03;77.41
67430;BME280;54298;52.076;5.264;2023-03-23T02:06:49;99968.0;;;12.97;77.89
67430;BME280;54298;52.076;5.264;2023-03-23T02:08:27;99971.0;;;12.93;78.22
67430;BME280;54298;52.076;5.264;2023-03-23T02:11:41;99965.0;;;13.02;77.86
67430;BME280;54298;52.076;5.264;2023-03-23T02:13:18;99970.0;;;12.9;78.25
67430;BME280;54298;52.076;5.264;2023-03-23T02:14:55;99967.0;;;13.02;77.86
67430;BME280;54298;52.076;5.264;2023-03-23T02:16:34;99971.0;;;12.97;77.95
67430;BME280;54298;52.076;5.264;2023-03-23T02:20:19;99974.0;;;12.88;78.22
67430;BME280;54298;52.076;5.264;2023-03-23T02:22:22;99974.0;;;12.84;78.5
67430;BME280;54298;52.076;5.264;2023-03-23T02:25:40;99963.0;;;12.92;78.02
67430;BME280;54298;52.076;5.264;2023-03-23T02:27:45;99972.0;;;12.98;77.97
67430;BME280;54298;52.076;5.264;2023-03-23T02:30:11;99970.0;;;12.97;77.78
67430;BME280;54298;52.076;5.264;2023-03-23T02:32:10;99964.0;;;12.88;78.17
67430;BME280;54298;52.076;5.264;2023-03-23T02:33:53;99971.0;;;12.97;77.86
67430;BME280;54298;52.076;5.264;2023-03-23T02:35:34;99968.0;;;13.03;77.7
67430;BME280;54298;52.076;5.264;2023-03-23T02:39:01;99965.0;;;13.01;77.63
67430;BME280;54298;52.076;5.264;2023-03-23T02:40:42;99965.0;;;13.06;77.62
67430;BME280;54298;52.076;5.264;2023-03-23T02:42:23;99971.0;;;13.06;77.53
67430;BME280;54298;52.076;5.264;2023-03-23T02:44:04;99967.0;;;13.0;77.7
67430;BME280;54298;52.076;5.264;2023-03-23T02:47:22;99962.0;;;12.94;77.97
67430;BME280;54298;52.076;5.264;2023-03-23T02:49:01;99962.0;;;13.03;77.62
67430;BME280;54298;52.076;5.264;2023-03-23T02:50:43;99962.0;;;13.03;77.77
67430;BME280;54298;52.076;5.264;2023-03-23T02:52:24;99962.0;;;13.04;77.55
67430;BME280;54298;52.076;5.264;2023-03-23T02:55:43;99972.0;;;13.2;77.11
67430;BME280;54298;52.076;5.264;2023-03-23T02:57:20;99973.0;;;13.12;77.2
67430;BME280;54298;52.076;5.264;2023-03-23T02:58:58;99967.0;;;13.09;77.25
67430;BME280;54298;52.076;5.264;2023-03-23T03:00:36;99962.0;;;13.09;77.27
67430;BME280;54298;52.076;5.264;2023-03-23T03:03:54;99955.0;;;13.09;77.14
67430;BME280;54298;52.076;5.264;2023-03-23T03:05:38;99953.0;;;13.05;77.22
67430;BME280;54298;52.076;5.264;2023-03-23T03:07:32;99959.0;;;13.06;76.69
67430;BME280;54298;52.076;5.264;2023-03-23T03:09:27;99959.0;;;13.02;76.86
67430;BME280;54298;52.076;5.264;2023-03-23T03:11:12;99959.0;;;13.09;76.58
67430;BME280;54298;52.076;5.264;2023-03-23T03:14:37;99963.0;;;13.2;76.23
67430;BME280;54298;52.076;5.264;2023-03-23T03:16:23;99966.0;;;13.08;76.28
67430;BME280;54298;52.076;5.264;2023-03-23T03:18:07;99952.0;;;13.13;75.95
67430;BME280;54298;52.076;5.264;2023-03-23T03:19:49;99956.0;;;13.18;75.62
67430;BME280;54298;52.076;5.264;2023-03-23T03:21:31;99952.0;;;13.29;75.31
67430;BME280;54298;52.076;5.264;2023-03-23T03:24:50;99956.0;;;13.28;75.22
67430;BME280;54298;52.076;5.264;2023-03-23T03:26:28;99952.0;;;13.21;74.97
67430;BME280;54298;52.076;5.264;2023-03-23T03:28:06;99949.0;;;13.22;75.28
67430;BME280;54298;52.076;5.264;2023-03-23T03:29:44;99945.0;;;13.17;75.22
67430;BME280;54298;52.076;5.264;2023-03-23T03:33:04;99950.0;;;13.16;75.22
67430;BME280;54298;52.076;5.264;2023-03-23T03:34:41;99952.0;;;13.17;75.38
67430;BME280;54298;52.076;5.264;2023-03-23T03:36:19;99956.0;;;13.2;75.27
67430;BME280;54298;52.076;5.264;2023-03-23T03:39:41;99942.0;;;13.12;75.53
67430;BME280;54298;52.076;5.264;2023-03-23T03:41:18;99944.0;;;13.08;75.38
67430;BME280;54298;52.076;5.264;2023-03-23T03:42:55;99935.0;;;13.02;75.83
67430;BME280;54298;52.076;5.264;2023-03-23T03:44:32;99928.0;;;13.17;75.38
67430;BME280;54298;52.076;5.264;2023-03-23T03:47:45;99944.0;;;13.12;75.55
67430;BME280;54298;52.076;5.264;2023-03-23T03:49:21;99947.0;;;13.16;75.45
67430;BME280;54298;52.076;5.264;2023-03-23T03:50:57;99943.0;;;13.17;75.22
67430;BME280;54298;52.076;5.264;2023-03-23T03:54:10;99935.0;;;13.21;75.11
67430;BME280;54298;52.076;5.264;2023-03-23T03:55:46;99939.0;;;13.2;75.17
67430;BME280;54298;52.076;5.264;2023-03-23T03:57:23;99942.0;;;13.21;75.02
67430;BME280;54298;52.076;5.264;2023-03-23T03:58:59;99941.0;;;13.27;74.81
67430;BME280;54298;52.076;5.264;2023-03-23T04:02:11;99934.0;;;13.24;74.91
67430;BME280;54298;52.076;5.264;2023-03-23T04:03:47;99943.0;;;13.24;74.87
67430;BME280;54298;52.076;5.264;2023-03-23T04:05:23;99947.0;;;13.25;74.75
67430;BME280;54298;52.076;5.264;2023-03-23T04:08:36;99946.0;;;13.27;74.53
67430;BME280;54298;52.076;5.264;2023-03-23T04:10:12;99950.0;;;13.28;74.3
67430;BME280;54298;52.076;5.264;2023-03-23T04:11:49;99955.0;;;13.27;74.39
67430;BME280;54298;52.076;5.264;2023-03-23T04:15:01;99953.0;;;13.39;74.12
67430;BME280;54298;52.076;5.264;2023-03-23T04:16:38;99947.0;;;13.35;74.05
67430;BME280;54298;52.076;5.264;2023-03-23T04:18:15;99947.0;;;13.31;74.06
67430;BME280;54298;52.076;5.264;2023-03-23T04:21:29;99936.0;;;13.35;73.88
67430;BME280;54298;52.076;5.264;2023-03-23T04:23:06;99947.0;;;13.21;73.98
67430;BME280;54298;52.076;5.264;2023-03-23T04:24:42;99960.0;;;13.24;73.83
67430;BME280;54298;52.076;5.264;2023-03-23T04:26:18;99959.0;;;13.24;73.49
67430;BME280;54298;52.076;5.264;2023-03-23T04:29:30;99953.0;;;13.16;73.66
67430;BME280;54298;52.076;5.264;2023-03-23T04:31:06;99955.0;;;13.11;73.48
67430;BME280;54298;52.076;5.264;2023-03-23T04:32:42;99968.0;;;13.17;73.64
67430;BME280;54298;52.076;5.264;2023-03-23T04:35:56;99970.0;;;13.28;73.23
67430;BME280;54298;52.076;5.264;2023-03-23T04:37:36;99966.0;;;13.19;73.44
67430;BME280;54298;52.076;5.264;2023-03-23T04:39:14;99968.0;;;13.2;73.27
67430;BME280;54298;52.076;5.264;2023-03-23T04:40:51;99965.0;;;13.15;73.56
67430;BME280;54298;52.076;5.264;2023-03-23T04:44:07;99981.0;;;13.22;73.19
67430;BME280;54298;52.076;5.264;2023-03-23T04:45:43;99975.0;;;13.2;73.02
67430;BME280;54298;52.076;5.264;2023-03-23T04:47:20;99990.0;;;13.29;72.92
67430;BME280;54298;52.076;5.264;2023-03-23T04:50:32;99974.0;;;13.28;72.91
67430;BME280;54298;52.076;5.264;2023-03-23T04:52:09;99983.0;;;13.4;72.5
67430;BME280;54298;52.076;5.264;2023-03-23T04:53:45;99985.0;;;13.46;72.12
67430;BME280;54298;52.076;5.264;2023-03-23T04:56:57;99981.0;;;13.25;72.56
67430;BME280;54298;52.076;5.264;2023-03-23T04:58:33;99985.0;;;13.14;73.22
67430;BME280;54298;52.076;5.264;2023-03-23T05:00:11;99988.0;;;13.19;73.33
67430;BME280;54298;52.076;5.264;2023-03-23T05:01:46;99986.0;;;13.12;73.42
67430;BME280;54298;52.076;5.264;2023-03-23T05:04:59;99987.0;;;13.1;73.52
67430;BME280;54298;52.076;5.264;2023-03-23T05:06:35;99988.0;;;13.12;73.63
67430;BME280;54298;52.076;5.264;2023-03-23T05:08:11;99988.0;;;13.07;73.91
67430;BME280;54298;52.076;5.264;2023-03-23T05:11:24;99986.0;;;13.14;73.86
67430;BME280;54298;52.076;5.264;2023-03-23T05:13:00;99994.0;;;13.07;74.27
67430;BME280;54298;52.076;5.264;2023-03-23T05:14:40;99994.0;;;12.95;75.3
67430;BME280;54298;52.076;5.264;2023-03-23T05:17:52;99983.0;;;12.89;75.55
67430;BME280;54298;52.076;5.264;2023-03-23T05:19:28;99990.0;;;13.0;75.58
67430;BME280;54298;52.076;5.264;2023-03-23T05:21:04;99990.0;;;12.91;75.63
67430;BME280;54298;52.076;5.264;2023-03-23T05:22:41;99985.0;;;12.82;76.03
67430;BME280;54298;52.076;5.264;2023-03-23T05:25:54;99990.0;;;12.91;75.45
67430;BME280;54298;52.076;5.264;2023-03-23T05:27:31;99984.0;;;12.83;75.91
67430;BME280;54298;52.076;5.264;2023-03-23T05:29:07;99994.0;;;12.79;76.5
67430;BME280;54298;52.076;5.264;2023-03-23T05:32:19;100002.0;;;12.79;77.2
67430;BME280;54298;52.076;5.264;2023-03-23T05:33:55;100009.0;;;12.67;78.03
67430;BME280;54298;52.076;5.264;2023-03-23T05:35:31;99999.0;;;12.72;78.24
67430;BME280;54298;52.076;5.264;2023-03-23T05:38:45;99999.0;;;12.73;78.48
67430;BME280;54298;52.076;5.264;2023-03-23T05:40:21;100008.0;;;12.73;78.74
67430;BME280;54298;52.076;5.264;2023-03-23T05:41:57;100017.0;;;12.77;78.87
67430;BME280;54298;52.076;5.264;2023-03-23T05:45:10;100016.0;;;12.82;79.02
67430;BME280;54298;52.076;5.264;2023-03-23T05:46:47;100006.0;;;12.81;78.92
67430;BME280;54298;52.076;5.264;2023-03-23T05:48:24;100013.0;;;12.73;79.56
67430;BME280;54298;52.076;5.264;2023-03-23T05:50:01;100005.0;;;12.72;79.61
67430;BME280;54298;52.076;5.264;2023-03-23T05:53:13;100018.0;;;12.8;79.33
67430;BME280;54298;52.076;5.264;2023-03-23T05:54:49;100020.0;;;12.95;78.77
67430;BME280;54298;52.076;5.264;2023-03-23T05:56:25;100023.0;;;12.85;79.23
67430;BME280;54298;52.076;5.264;2023-03-23T05:59:37;100022.0;;;12.69;80.62
67430;BME280;54298;52.076;5.264;2023-03-23T06:01:14;100037.0;;;12.72;81.55
67430;BME280;54298;52.076;5.264;2023-03-23T06:02:50;100039.0;;;12.66;82.34
67430;BME280;54298;52.076;5.264;2023-03-23T06:04:30;100034.0;;;12.6;82.82
67430;BME280;54298;52.076;5.264;2023-03-23T06:07:46;100035.0;;;12.49;83.64
67430;BME280;54298;52.076;5.264;2023-03-23T06:09:22;100031.0;;;12.52;83.93
67430;BME280;54298;52.076;5.264;2023-03-23T06:10:58;100027.0;;;12.47;84.04
67430;BME280;54298;52.076;5.264;2023-03-23T06:15:48;100049.0;;;12.44;84.88
67430;BME280;54298;52.076;5.264;2023-03-23T06:17:24;100049.0;;;12.51;84.76
67430;BME280;54298;52.076;5.264;2023-03-23T06:20:36;100050.0;;;12.41;85.29
67430;BME280;54298;52.076;5.264;2023-03-23T06:22:12;100057.0;;;12.36;85.85
67430;BME280;54298;52.076;5.264;2023-03-23T06:23:49;100052.0;;;12.43;85.71
67430;BME280;54298;52.076;5.264;2023-03-23T06:25:25;100047.0;;;12.32;86.01
67430;BME280;54298;52.076;5.264;2023-03-23T06:28:38;100056.0;;;12.34;86.49
67430;BME280;54298;52.076;5.264;2023-03-23T06:30:14;100055.0;;;12.45;86.04
67430;BME280;54298;52.076;5.264;2023-03-23T06:31:52;100056.0;;;12.48;86.09
67430;BME280;54298;52.076;5.264;2023-03-23T06:35:10;100068.0;;;12.48;86.03
67430;BME280;54298;52.076;5.264;2023-03-23T06:36:46;100077.0;;;12.3;86.54
67430;BME280;54298;52.076;5.264;2023-03-23T06:38:23;100074.0;;;12.25;86.81
67430;BME280;54298;52.076;5.264;2023-03-23T06:41:36;100074.0;;;12.33;86.64
67430;BME280;54298;52.076;5.264;2023-03-23T06:43:13;100078.0;;;12.22;86.46
67430;BME280;54298;52.076;5.264;2023-03-23T06:44:49;100084.0;;;12.18;85.93
67430;BME280;54298;52.076;5.264;2023-03-23T06:48:01;100077.0;;;12.17;85.66
67430;BME280;54298;52.076;5.264;2023-03-23T06:49:37;100080.0;;;12.24;85.56
67430;BME280;54298;52.076;5.264;2023-03-23T06:51:13;100093.0;;;12.2;85.47
67430;BME280;54298;52.076;5.264;2023-03-23T06:52:50;100100.0;;;12.12;85.83
67430;BME280;54298;52.076;5.264;2023-03-23T06:56:03;100098.0;;;12.13;86.36
67430;BME280;54298;52.076;5.264;2023-03-23T06:57:39;100086.0;;;12.22;86.47
67430;BME280;54298;52.076;5.264;2023-03-23T06:59:15;100087.0;;;12.27;86.53
67430;BME280;54298;52.076;5.264;2023-03-23T07:02:29;100087.0;;;12.24;86.24
67430;BME280;54298;52.076;5.264;2023-03-23T07:04:05;100084.0;;;12.27;86.42
67430;BME280;54298;52.076;5.264;2023-03-23T07:05:41;100085.0;;;12.28;86.55
67430;BME280;54298;52.076;5.264;2023-03-23T07:07:22;100069.0;;;12.2;86.03
67430;BME280;54298;52.076;5.264;2023-03-23T07:10:34;100111.0;;;12.11;86.72
67430;BME280;54298;52.076;5.264;2023-03-23T07:12:10;100114.0;;;12.07;86.83
67430;BME280;54298;52.076;5.264;2023-03-23T07:13:46;100106.0;;;12.1;86.23
67430;BME280;54298;52.076;5.264;2023-03-23T07:16:58;100105.0;;;12.21;85.55
67430;BME280;54298;52.076;5.264;2023-03-23T07:18:35;100101.0;;;12.21;85.12
67430;BME280;54298;52.076;5.264;2023-03-23T07:20:11;100098.0;;;12.25;85.1
67430;BME280;54298;52.076;5.264;2023-03-23T07:23:24;100107.0;;;12.11;85.17
67430;BME280;54298;52.076;5.264;2023-03-23T07:25:00;100110.0;;;12.21;85.29
67430;BME280;54298;52.076;5.264;2023-03-23T07:26:36;100111.0;;;12.02;84.41
67430;BME280;54298;52.076;5.264;2023-03-23T07:28:12;100117.0;;;12.06;84.7
67430;BME280;54298;52.076;5.264;2023-03-23T07:31:26;100117.0;;;12.15;84.54
67430;BME280;54298;52.076;5.264;2023-03-23T07:33:04;100118.0;;;12.15;84.37
67430;BME280;54298;52.076;5.264;2023-03-23T07:34:41;100123.0;;;12.08;83.92
67430;BME280;54298;52.076;5.264;2023-03-23T07:37:53;100124.0;;;12.15;83.96
67430;BME280;54298;52.076;5.264;2023-03-23T07:39:30;100124.0;;;12.06;83.79
67430;BME280;54298;52.076;5.264;2023-03-23T07:41:07;100124.0;;;12.14;83.66
67430;BME280;54298;52.076;5.264;2023-03-23T07:44:22;100130.0;;;12.15;83.56
67430;BME280;54298;52.076;5.264;2023-03-23T07:45:58;100126.0;;;12.27;83.45
67430;BME280;54298;52.076;5.264;2023-03-23T07:47:34;100133.0;;;12.36;83.38
67430;BME280;54298;52.076;5.264;2023-03-23T07:49:10;100132.0;;;12.32;83.16
67430;BME280;54298;52.076;5.264;2023-03-23T07:52:23;100133.0;;;12.32;83.61
67430;BME280;54298;52.076;5.264;2023-03-23T07:53:59;100132.0;;;12.39;83.53
67430;BME280;54298;52.076;5.264;2023-03-23T07:55:35;100134.0;;;12.37;83.5
67430;BME280;54298;52.076;5.264;2023-03-23T07:58:47;100130.0;;;12.43;83.65
67430;BME280;54298;52.076;5.264;2023-03-23T08:00:25;100130.0;;;12.47;83.38
67430;BME280;54298;52.076;5.264;2023-03-23T08:02:01;100138.0;;;12.41;83.33
67430;BME280;54298;52.076;5.264;2023-03-23T08:05:14;100124.0;;;12.35;83.71
67430;BME280;54298;52.076;5.264;2023-03-23T08:06:51;100136.0;;;12.44;83.12
67430;BME280;54298;52.076;5.264;2023-03-23T08:08:27;100147.0;;;12.48;82.96
67430;BME280;54298;52.076;5.264;2023-03-23T08:10:04;100147.0;;;12.46;82.8
67430;BME280;54298;52.076;5.264;2023-03-23T08:13:17;100157.0;;;12.52;82.16
67430;BME280;54298;52.076;5.264;2023-03-23T08:14:54;100139.0;;;12.48;81.72
67430;BME280;54298;52.076;5.264;2023-03-23T08:16:30;100141.0;;;12.49;81.81
67430;BME280;54298;52.076;5.264;2023-03-23T08:19:43;100144.0;;;12.32;81.86
67430;BME280;54298;52.076;5.264;2023-03-23T08:21:19;100149.0;;;12.46;81.45
67430;BME280;54298;52.076;5.264;2023-03-23T08:22:56;100145.0;;;12.49;81.17
67430;BME280;54298;52.076;5.264;2023-03-23T08:26:09;100143.0;;;12.59;81.03
67430;BME280;54298;52.076;5.264;2023-03-23T08:27:46;100144.0;;;12.63;80.69
67430;BME280;54298;52.076;5.264;2023-03-23T08:29:23;100152.0;;;12.56;80.7
67430;BME280;54298;52.076;5.264;2023-03-23T08:30:59;100155.0;;;12.63;80.86
67430;BME280;54298;52.076;5.264;2023-03-23T08:34:13;100156.0;;;12.74;80.97
67430;BME280;54298;52.076;5.264;2023-03-23T08:35:55;100157.0;;;12.71;80.84
67430;BME280;54298;52.076;5.264;2023-03-23T08:37:32;100158.0;;;12.71;81.12
67430;BME280;54298;52.076;5.264;2023-03-23T08:40:44;100156.0;;;12.6;81.24
67430;BME280;54298;52.076;5.264;2023-03-23T08:42:20;100160.0;;;12.48;81.66
67430;BME280;54298;52.076;5.264;2023-03-23T08:43:56;100163.0;;;12.51;81.61
67430;BME280;54298;52.076;5.264;2023-03-23T08:47:08;100151.0;;;12.6;81.23
67430;BME280;54298;52.076;5.264;2023-03-23T08:48:45;100159.0;;;12.52;81.28
67430;BME280;54298;52.076;5.264;2023-03-23T08:50:25;100168.0;;;12.62;81.52
67430;BME280;54298;52.076;5.264;2023-03-23T08:52:01;100176.0;;;12.75;80.94
67430;BME280;54298;52.076;5.264;2023-03-23T08:55:15;100171.0;;;12.68;80.58
67430;BME280;54298;52.076;5.264;2023-03-23T08:56:52;100177.0;;;12.73;80.47
67430;BME280;54298;52.076;5.264;2023-03-23T08:58:29;100180.0;;;12.73;80.33
67430;BME280;54298;52.076;5.264;2023-03-23T09:01:45;100181.0;;;12.96;79.88
67430;BME280;54298;52.076;5.264;2023-03-23T09:03:21;100172.0;;;13.08;79.47
67430;BME280;54298;52.076;5.264;2023-03-23T09:04:57;100185.0;;;13.14;78.66
67430;BME280;54298;52.076;5.264;2023-03-23T09:06:34;100186.0;;;13.11;78.38
67430;BME280;54298;52.076;5.264;2023-03-23T09:09:47;100183.0;;;13.16;77.87
67430;BME280;54298;52.076;5.264;2023-03-23T09:11:23;100185.0;;;13.16;78.28
67430;BME280;54298;52.076;5.264;2023-03-23T09:12:59;100176.0;;;13.18;77.8
67430;BME280;54298;52.076;5.264;2023-03-23T09:16:13;100184.0;;;13.3;77.11
67430;BME280;54298;52.076;5.264;2023-03-23T09:17:50;100182.0;;;13.35;75.87
67430;BME280;54298;52.076;5.264;2023-03-23T09:19:28;100187.0;;;13.28;74.8
67430;BME280;54298;52.076;5.264;2023-03-23T09:22:45;100191.0;;;13.3;75.33
67430;BME280;54298;52.076;5.264;2023-03-23T09:24:21;100190.0;;;13.29;74.64
67430;BME280;54298;52.076;5.264;2023-03-23T09:26:00;100186.0;;;13.24;74.27
67430;BME280;54298;52.076;5.264;2023-03-23T09:27:37;100182.0;;;13.24;74.61
67430;BME280;54298;52.076;5.264;2023-03-23T09:30:50;100173.0;;;13.23;74.16
67430;BME280;54298;52.076;5.264;2023-03-23T09:32:26;100182.0;;;13.35;74.38
67430;BME280;54298;52.076;5.264;2023-03-23T09:34:02;100190.0;;;13.33;73.86
67430;BME280;54298;52.076;5.264;2023-03-23T09:37:15;100195.0;;;13.36;72.2
67430;BME280;54298;52.076;5.264;2023-03-23T09:38:52;100205.0;;;13.18;71.5
67430;BME280;54298;52.076;5.264;2023-03-23T09:40:33;100195.0;;;13.19;70.94
67430;BME280;54298;52.076;5.264;2023-03-23T09:42:30;100202.0;;;13.31;70.97
67430;BME280;54298;52.076;5.264;2023-03-23T09:44:18;100206.0;;;13.4;71.44
67430;BME280;54298;52.076;5.264;2023-03-23T09:48:11;100199.0;;;13.46;71.28
67430;BME280;54298;52.076;5.264;2023-03-23T09:50:10;100206.0;;;13.61;71.94
67430;BME280;54298;52.076;5.264;2023-03-23T09:51:50;100200.0;;;13.63;70.97
67430;BME280;54298;52.076;5.264;2023-03-23T09:53:33;100195.0;;;13.72;69.92
67430;BME280;54298;52.076;5.264;2023-03-23T09:55:15;100215.0;;;13.65;69.94
67430;BME280;54298;52.076;5.264;2023-03-23T09:56:54;100216.0;;;13.54;70.08
67430;BME280;54298;52.076;5.264;2023-03-23T10:00:21;100221.0;;;13.53;69.64
67430;BME280;54298;52.076;5.264;2023-03-23T10:02:11;100228.0;;;13.47;68.64
67430;BME280;54298;52.076;5.264;2023-03-23T10:04:12;100233.0;;;13.59;68.44
67430;BME280;54298;52.076;5.264;2023-03-23T10:05:53;100240.0;;;13.56;67.99
67430;BME280;54298;52.076;5.264;2023-03-23T10:07:30;100232.0;;;13.51;68.08
67430;BME280;54298;52.076;5.264;2023-03-23T10:10:58;100240.0;;;13.44;67.87
67430;BME280;54298;52.076;5.264;2023-03-23T10:12:42;100244.0;;;13.49;67.87
67430;BME280;54298;52.076;5.264;2023-03-23T10:14:32;100246.0;;;13.54;67.83
67430;BME280;54298;52.076;5.264;2023-03-23T10:16:20;100245.0;;;13.57;68.42
67430;BME280;54298;52.076;5.264;2023-03-23T10:18:07;100247.0;;;13.55;67.39
67430;BME280;54298;52.076;5.264;2023-03-23T10:19:54;100249.0;;;13.59;67.09
67430;BME280;54298;52.076;5.264;2023-03-23T10:21:52;100248.0;;;13.73;66.58
67430;BME280;54298;52.076;5.264;2023-03-23T10:25:29;100253.0;;;13.73;67.02
67430;BME280;54298;52.076;5.264;2023-03-23T10:27:17;100247.0;;;13.71;66.72
67430;BME280;54298;52.076;5.264;2023-03-23T10:28:58;100250.0;;;13.71;66.25
67430;BME280;54298;52.076;5.264;2023-03-23T10:30:39;100247.0;;;13.61;66.02
67430;BME280;54298;52.076;5.264;2023-03-23T10:32:18;100255.0;;;13.78;66.28
67430;BME280;54298;52.076;5.264;2023-03-23T10:35:43;100262.0;;;13.78;65.77
67430;BME280;54298;52.076;5.264;2023-03-23T10:37:37;100255.0;;;13.92;66.17
67430;BME280;54298;52.076;5.264;2023-03-23T10:39:18;100256.0;;;13.85;64.52
67430;BME280;54298;52.076;5.264;2023-03-23T10:40:59;100257.0;;;13.74;64.94
67430;BME280;54298;52.076;5.264;2023-03-23T10:44:19;100255.0;;;13.87;65.6
67430;BME280;54298;52.076;5.264;2023-03-23T10:46:01;100252.0;;;13.82;65.3
67430;BME280;54298;52.076;5.264;2023-03-23T10:47:51;100255.0;;;13.83;64.27
67430;BME280;54298;52.076;5.264;2023-03-23T10:49:36;100256.0;;;13.92;64.74
67430;BME280;54298;52.076;5.264;2023-03-23T10:51:17;100262.0;;;13.99;64.63
67430;BME280;54298;52.076;5.264;2023-03-23T10:54:37;100243.0;;;14.17;64.64
67430;BME280;54298;52.076;5.264;2023-03-23T10:56:22;100234.0;;;14.33;63.62
67430;BME280;54298;52.076;5.264;2023-03-23T10:59:41;100255.0;;;14.45;62.43
67430;BME280;54298;52.076;5.264;2023-03-23T11:02:59;100257.0;;;14.44;61.79
67430;BME280;54298;52.076;5.264;2023-03-23T11:04:37;100255.0;;;14.53;61.03
67430;BME280;54298;52.076;5.264;2023-03-23T11:06:19;100261.0;;;14.46;62.06
67430;BME280;54298;52.076;5.264;2023-03-23T11:07:59;100269.0;;;14.39;61.09
67430;BME280;54298;52.076;5.264;2023-03-23T11:11:16;100274.0;;;14.29;61.76
67430;BME280;54298;52.076;5.264;2023-03-23T11:12:57;100266.0;;;14.29;61.05
67430;BME280;54298;52.076;5.264;2023-03-23T11:14:35;100270.0;;;14.2;61.5